createdAt,value
2024-03-26T00:00:00.685Z,202.5
2024-03-26T00:05:00.677Z,202.5
2024-03-26T00:10:00.621Z,202.5
2024-03-26T00:15:00.949Z,202.5
2024-03-26T00:20:00.592Z,202.5
2024-03-26T00:25:00.622Z,202.5
2024-03-26T00:30:00.694Z,202.5
2024-03-26T00:35:00.577Z,202.5
2024-03-26T00:40:00.630Z,147.4
2024-03-26T00:45:00.668Z,135.1
2024-03-26T00:50:00.698Z,135.0
2024-03-26T00:55:00.587Z,135.0
2024-03-26T01:00:00.687Z,135.0
2024-03-26T01:05:00.591Z,135.0
2024-03-26T01:10:00.575Z,135.0
2024-03-26T01:15:00.741Z,135.0
2024-03-26T01:20:00.584Z,135.0
2024-03-26T01:25:00.590Z,135.0
2024-03-26T01:30:00.611Z,156.3
2024-03-26T01:35:00.608Z,157.5
2024-03-26T01:40:00.640Z,157.5
2024-03-26T01:45:00.647Z,157.5
2024-03-26T01:50:00.642Z,157.5
2024-03-26T01:55:00.602Z,157.5
2024-03-26T02:00:00.713Z,157.5
2024-03-26T02:05:00.617Z,157.5
2024-03-26T02:10:00.590Z,157.5
2024-03-26T02:15:00.614Z,157.5
2024-03-26T02:20:00.576Z,157.5
2024-03-26T02:25:00.638Z,157.5
2024-03-26T02:30:00.618Z,157.5
2024-03-26T02:35:00.629Z,157.5
2024-03-26T02:40:00.623Z,157.5
2024-03-26T02:45:00.587Z,157.5
2024-03-26T02:50:00.635Z,157.5
2024-03-26T02:55:00.588Z,157.5
2024-03-26T03:00:00.657Z,157.5
2024-03-26T03:05:00.595Z,157.5
2024-03-26T03:10:00.616Z,157.5
2024-03-26T03:15:00.653Z,157.5
2024-03-26T03:20:00.553Z,157.5
2024-03-26T03:25:00.589Z,157.5
2024-03-26T03:30:00.641Z,157.5
2024-03-26T03:35:00.696Z,157.5
2024-03-26T03:40:00.545Z,157.5
2024-03-26T03:45:00.612Z,157.5
2024-03-26T03:50:00.659Z,157.5
2024-03-26T03:55:00.603Z,157.5
2024-03-26T04:00:00.589Z,157.5
2024-03-26T04:05:00.594Z,157.5
2024-03-26T04:10:00.529Z,140.7
2024-03-26T04:15:00.622Z,135.0
2024-03-26T04:20:00.562Z,135.0
2024-03-26T04:25:00.597Z,87.0
2024-03-26T04:30:00.620Z,77.9
2024-03-26T04:35:00.609Z,88.1
2024-03-26T04:40:00.545Z,90.2
2024-03-26T04:45:00.624Z,67.7
2024-03-26T04:50:00.992Z,74.1
2024-03-26T04:55:00.655Z,83.6
2024-03-26T05:00:00.546Z,67.7
2024-03-26T05:05:00.577Z,67.5
2024-03-26T05:10:00.590Z,78.8
2024-03-26T05:15:00.616Z,89.9
2024-03-26T05:20:00.597Z,86.6
2024-03-26T05:25:00.621Z,69.0
2024-03-26T05:30:00.671Z,88.7
2024-03-26T05:35:00.599Z,80.9
2024-03-26T05:40:00.616Z,84.6
2024-03-26T05:45:00.711Z,77.6
2024-03-26T05:50:00.614Z,89.4
2024-03-26T05:55:00.606Z,89.6
2024-03-26T06:00:00.636Z,88.9
2024-03-26T06:05:00.592Z,98.0
2024-03-26T06:10:00.570Z,89.6
2024-03-26T06:15:00.595Z,112.1
2024-03-26T06:20:00.615Z,86.9
2024-03-26T06:25:00.592Z,91.5
2024-03-26T06:30:00.608Z,139.9
2024-03-26T06:35:00.633Z,97.2
2024-03-26T06:40:00.547Z,95.7
2024-03-26T06:45:00.667Z,89.2
2024-03-26T06:50:00.629Z,123.2
2024-03-26T06:55:00.645Z,146.1
2024-03-26T07:00:00.695Z,143.9
2024-03-26T07:05:00.663Z,139.1
2024-03-26T07:10:00.751Z,135.0
2024-03-26T07:15:00.651Z,122.3
2024-03-26T07:20:00.768Z,95.9
2024-03-26T07:25:00.629Z,135.0
2024-03-26T07:30:00.703Z,146.8
2024-03-26T07:35:00.685Z,134.0
2024-03-26T07:40:00.755Z,96.0
2024-03-26T07:45:01.139Z,146.1
2024-03-26T07:50:01.020Z,109.6
2024-03-26T07:55:00.760Z,92.1
2024-03-26T08:00:01.232Z,106.4
2024-03-26T08:05:00.684Z,141.3
2024-03-26T08:10:00.642Z,153.3
2024-03-26T08:15:01.001Z,131.2
2024-03-26T08:20:00.870Z,139.7
2024-03-26T08:25:00.677Z,131.2
2024-03-26T08:30:00.992Z,149.2
2024-03-26T08:35:00.650Z,150.6
2024-03-26T08:40:00.632Z,153.3
2024-03-26T08:45:00.847Z,138.6
2024-03-26T08:50:00.597Z,129.0
2024-03-26T08:55:00.637Z,99.8
2024-03-26T09:00:00.897Z,114.3
2024-03-26T09:05:00.638Z,81.6
2024-03-26T09:10:00.569Z,131.1
2024-03-26T09:15:00.980Z,105.1
2024-03-26T09:20:00.563Z,131.7
2024-03-26T09:25:00.627Z,150.2
2024-03-26T09:30:00.752Z,119.4
2024-03-26T09:35:00.622Z,129.3
2024-03-26T09:40:00.677Z,123.3
2024-03-26T09:45:08.503Z,118.9
2024-03-26T09:50:00.675Z,128.3
2024-03-26T09:55:00.697Z,147.2
2024-03-26T10:00:00.803Z,135.0
2024-03-26T10:05:00.625Z,109.7
2024-03-26T10:10:00.621Z,84.5
2024-03-26T10:15:00.770Z,84.1
2024-03-26T10:20:00.566Z,107.3
2024-03-26T10:25:00.606Z,101.6
2024-03-26T10:30:00.805Z,144.3
2024-03-26T10:35:00.652Z,82.9
2024-03-26T10:40:00.567Z,103.1
2024-03-26T10:45:00.782Z,133.1
2024-03-26T10:50:00.658Z,121.5
2024-03-26T10:55:00.634Z,84.3
2024-03-26T11:00:00.766Z,111.5
2024-03-26T11:05:00.685Z,85.1
2024-03-26T11:10:00.606Z,135.7
2024-03-26T11:15:00.761Z,82.2
2024-03-26T11:20:00.648Z,85.3
2024-03-26T11:25:00.605Z,88.0
2024-03-26T11:30:00.847Z,148.4
2024-03-26T11:35:00.620Z,102.4
2024-03-26T11:40:00.605Z,92.8
2024-03-26T11:45:00.758Z,73.5
2024-03-26T11:50:00.575Z,99.8
2024-03-26T11:55:00.664Z,89.9
2024-03-26T12:00:00.850Z,119.2
2024-03-26T12:05:00.659Z,108.3
2024-03-26T12:10:00.550Z,98.6
2024-03-26T12:15:00.732Z,83.9
2024-03-26T12:20:00.572Z,129.2
2024-03-26T12:25:00.624Z,104.5
2024-03-26T12:30:00.664Z,112.5
2024-03-26T12:35:00.643Z,109.3
2024-03-26T12:40:00.653Z,90.8
2024-03-26T12:45:00.674Z,86.8
2024-03-26T12:50:05.492Z,84.9
2024-03-26T12:55:00.617Z,132.8
2024-03-26T13:00:00.593Z,65.3
2024-03-26T13:05:00.683Z,103.3
2024-03-26T13:10:00.579Z,146.2
2024-03-26T13:15:00.626Z,149.2
2024-03-26T13:20:00.565Z,135.7
2024-03-26T13:25:00.602Z,99.9
2024-03-26T13:30:00.623Z,85.8
2024-03-26T13:35:00.632Z,89.8
2024-03-26T13:40:00.716Z,134.1
2024-03-26T13:45:00.663Z,91.0
2024-03-26T13:50:00.657Z,123.5
2024-03-26T13:55:00.849Z,147.4
2024-03-26T14:00:00.665Z,150.5
2024-03-26T14:05:00.660Z,154.1
2024-03-26T14:10:00.583Z,151.5
2024-03-26T14:15:00.696Z,137.8
2024-03-26T14:20:00.610Z,147.0
2024-03-26T14:25:00.600Z,110.0
2024-03-26T14:30:00.603Z,158.6
2024-03-26T14:35:00.621Z,135.3
2024-03-26T14:40:00.608Z,114.6
2024-03-26T14:45:00.676Z,139.5
2024-03-26T14:50:00.626Z,130.3
2024-03-26T14:55:00.641Z,109.3
2024-03-26T15:00:00.631Z,131.5
2024-03-26T15:05:00.593Z,120.7
2024-03-26T15:10:00.554Z,137.5
2024-03-26T15:15:00.580Z,139.7
2024-03-26T15:20:00.557Z,127.5
2024-03-26T15:25:00.611Z,133.6
2024-03-26T15:30:00.604Z,162.4
2024-03-26T15:35:00.610Z,136.6
2024-03-26T15:40:00.682Z,128.7
2024-03-26T15:45:00.580Z,132.9
2024-03-26T15:50:00.768Z,135.9
2024-03-26T15:55:00.670Z,142.6
2024-03-26T16:00:00.593Z,123.9
2024-03-26T16:05:00.610Z,124.6
2024-03-26T16:15:00.625Z,92.2
2024-03-26T16:20:00.681Z,123.5
2024-03-26T16:25:00.604Z,108.4
2024-03-26T16:30:00.648Z,77.0
2024-03-26T16:35:00.771Z,71.7
2024-03-26T16:40:00.594Z,72.4
2024-03-26T16:45:03.900Z,68.5
2024-03-26T16:50:00.656Z,64.3
2024-03-26T16:55:00.651Z,60.6
2024-03-26T17:00:00.573Z,73.1
2024-03-26T17:05:00.615Z,67.8
2024-03-26T17:10:00.690Z,78.1
2024-03-26T17:15:00.685Z,77.2
2024-03-26T17:20:00.606Z,76.0
2024-03-26T17:25:00.577Z,82.4
2024-03-26T17:30:00.737Z,64.6
2024-03-26T17:35:00.585Z,70.0
2024-03-26T17:40:00.719Z,65.8
2024-03-26T17:45:00.645Z,68.7
2024-03-26T17:50:00.638Z,66.3
2024-03-26T17:55:00.579Z,65.7
2024-03-26T18:00:00.640Z,67.7
2024-03-26T18:05:00.582Z,77.0
2024-03-26T18:10:00.610Z,68.8
2024-03-26T18:15:00.670Z,68.0
2024-03-26T18:20:00.673Z,67.5
2024-03-26T18:25:00.689Z,89.2
2024-03-26T18:30:00.583Z,74.1
2024-03-26T18:35:00.607Z,70.6
2024-03-26T18:40:00.591Z,72.0
2024-03-26T18:45:01.207Z,72.7
2024-03-26T18:50:00.583Z,70.2
2024-03-26T18:55:00.621Z,67.4
2024-03-26T19:00:00.694Z,68.2
2024-03-26T19:05:00.613Z,67.5
2024-03-26T19:10:00.545Z,72.4
2024-03-26T19:15:00.725Z,75.5
2024-03-26T19:20:00.712Z,72.1
2024-03-26T19:25:00.655Z,74.3
2024-03-26T19:30:00.736Z,110.4
2024-03-26T19:35:00.639Z,92.6
2024-03-26T19:40:00.614Z,88.2
2024-03-26T19:45:00.688Z,73.7
2024-03-26T19:50:00.646Z,69.8
2024-03-26T19:55:00.710Z,105.4
2024-03-26T20:00:00.624Z,91.7
2024-03-26T20:05:00.590Z,96.2
2024-03-26T20:10:00.650Z,82.9
2024-03-26T20:15:00.605Z,67.5
2024-03-26T20:20:00.654Z,90.3
2024-03-26T20:25:00.726Z,74.4
2024-03-26T20:30:00.581Z,82.9
2024-03-26T20:35:00.660Z,83.1
2024-03-26T20:40:00.595Z,85.0
2024-03-26T20:45:00.602Z,78.1
2024-03-26T20:50:05.348Z,79.0
2024-03-26T20:55:00.604Z,84.8
2024-03-26T21:00:00.673Z,88.3
2024-03-26T21:05:00.599Z,68.6
2024-03-26T21:10:00.601Z,80.1
2024-03-26T21:20:00.637Z,67.6
2024-03-26T21:25:00.589Z,68.3
2024-03-26T21:30:00.643Z,69.3
2024-03-26T21:35:00.801Z,73.9
2024-03-26T21:40:00.576Z,79.4
2024-03-26T21:45:00.602Z,61.2
2024-03-26T21:50:00.567Z,68.4
2024-03-26T21:55:00.630Z,73.7
2024-03-26T22:00:00.707Z,72.4
2024-03-26T22:05:00.573Z,77.5
2024-03-26T22:10:00.652Z,63.9
2024-03-26T22:15:00.534Z,67.9
2024-03-26T22:20:00.598Z,59.4
2024-03-26T22:25:00.692Z,45.3
2024-03-26T22:30:00.546Z,45.0
2024-03-26T22:35:00.601Z,45.0
2024-03-26T22:40:00.600Z,50.5
2024-03-26T22:45:00.647Z,50.4
2024-03-26T22:50:00.660Z,38.7
2024-03-26T22:55:00.684Z,47.7
2024-03-26T23:00:00.726Z,50.4
2024-03-26T23:05:00.964Z,47.5
2024-03-26T23:10:00.580Z,45.0
2024-03-26T23:15:00.610Z,45.0
2024-03-26T23:20:00.630Z,45.0
2024-03-26T23:25:00.600Z,45.0
2024-03-26T23:30:00.587Z,50.6
2024-03-26T23:35:00.583Z,67.1
2024-03-26T23:40:00.608Z,45.5
2024-03-26T23:45:00.590Z,65.6
2024-03-26T23:50:00.547Z,51.8
2024-03-26T23:55:00.575Z,61.3
